Time;durP1;ratioP1;P1;durP2;ratioP2;P2;SDS_P1;SDS_P2;PMS_P1;PMS_P2;Temp;Humidity;BMP_temperature;BMP_pressure;BME280_temperature;BME280_humidity;BME280_pressure;Samples;Min_cycle;Max_cycle;Signal;HPM_P1;HPM_P2
2021/12/17 00:02:12;;;;;;;95.45;44.55;;;;;;;6.73;100.00;103984.06;5128190;27;20035;-45
2021/12/17 00:06:52;;;;;;;95.05;43.13;;;;;;;6.74;100.00;103991.13;5121950;27;20039;-48
2021/12/17 00:09:18;;;;;;;92.45;43.75;;;;;;;6.73;100.00;103984.06;5120679;27;20114;-46
2021/12/17 00:11:43;;;;;;;95.88;43.97;;;;;;;6.77;100.00;103985.69;5121201;27;20023;-45
2021/12/17 00:14:09;;;;;;;91.03;42.50;;;;;;;6.78;100.00;103989.22;5121287;27;20026;-48
2021/12/17 00:16:39;;;;;;;96.57;44.25;;;;;;;6.82;100.00;103985.50;5121519;27;20353;-46
2021/12/17 00:19:18;;;;;;;98.65;42.83;;;;;;;6.83;100.00;103977.47;5103100;27;20043;-49
2021/12/17 00:48:54;;;;;;;93.97;42.45;;;;;;;6.87;100.00;103981.75;5141329;27;20128;-46
2021/12/17 00:54:07;;;;;;;86.57;40.58;;;;;;;6.85;100.00;103974.75;5139248;27;20039;-47
2021/12/17 00:56:34;;;;;;;88.50;40.67;;;;;;;6.88;100.00;103977.31;5140132;27;20179;-48
2021/12/17 00:58:59;;;;;;;87.18;41.50;;;;;;;6.91;100.00;103977.19;5140661;27;20433;-47
2021/12/17 01:01:25;;;;;;;89.40;42.03;;;;;;;6.94;100.00;103989.47;5141755;27;20022;-48
2021/12/17 01:03:51;;;;;;;97.05;41.75;;;;;;;6.96;100.00;103982.31;5141310;27;20023;-45
2021/12/17 01:06:17;;;;;;;91.72;42.35;;;;;;;6.94;100.00;103978.84;5141916;27;20394;-49
2021/12/17 01:08:42;;;;;;;99.13;42.13;;;;;;;6.94;100.00;103977.03;5140048;27;20026;-46
2021/12/17 01:11:07;;;;;;;97.20;43.63;;;;;;;6.96;100.00;103979.66;5141227;27;20023;-46
2021/12/17 01:13:35;;;;;;;92.07;42.85;;;;;;;6.96;100.00;103980.53;5140933;27;20047;-48
2021/12/17 01:16:01;;;;;;;93.70;42.78;;;;;;;6.96;100.00;103964.59;5140027;27;20121;-48
2021/12/17 01:18:39;;;;;;;92.35;41.10;;;;;;;6.98;100.00;103965.38;5122978;27;20114;-47
2021/12/17 01:21:25;;;;;;;91.47;42.95;;;;;;;7.00;100.00;103966.19;5140914;27;20030;-45
2021/12/17 01:42:39;;;;;;;100.55;41.92;;;;;;;7.04;100.00;103953.63;5119014;27;20112;-46
2021/12/17 01:45:05;;;;;;;106.55;43.75;;;;;;;7.06;100.00;103955.31;5100744;27;20027;-46
2021/12/17 01:47:31;;;;;;;105.13;43.38;;;;;;;7.06;100.00;103967.72;5120594;27;20906;-45
2021/12/17 02:01:09;;;;;;;102.50;40.33;;;;;;;7.07;100.00;103961.50;5111982;27;20038;-48
2021/12/17 02:03:34;;;;;;;119.35;43.72;;;;;;;7.09;100.00;103965.84;5119437;27;20106;-49
2021/12/17 02:06:02;;;;;;;106.97;41.40;;;;;;;7.11;100.00;103965.75;5119177;27;20049;-47
2021/12/17 02:08:27;;;;;;;111.93;42.33;;;;;;;7.10;100.00;103962.25;5118966;27;20064;-47
2021/12/17 02:11:07;;;;;;;104.90;42.13;;;;;;;7.08;100.00;103966.75;5118563;27;20733;-45
2021/12/17 02:30:02;;;;;;;114.22;40.67;;;;;;;7.06;100.00;103965.97;5119536;27;20049;-45
2021/12/17 02:32:30;;;;;;;122.72;42.72;;;;;;;7.09;100.00;103967.59;5119356;27;20053;-49
2021/12/17 02:35:22;;;;;;;113.15;41.67;;;;;;;7.07;100.00;103966.81;5120002;27;20027;-44
2021/12/17 02:37:49;;;;;;;112.15;41.33;;;;;;;7.12;100.00;103979.94;5119612;27;20025;-49
2021/12/17 02:45:32;;;;;;;134.00;43.10;;;;;;;7.14;100.00;103970.09;5119828;27;20030;-50
2021/12/17 02:48:08;;;;;;;130.43;41.85;;;;;;;7.16;100.00;103969.13;5119178;27;20034;-47
2021/12/17 02:50:43;;;;;;;154.55;43.42;;;;;;;7.16;100.00;103969.13;5119693;27;20051;-46
2021/12/17 02:53:09;;;;;;;169.77;44.10;;;;;;;7.18;100.00;103963.72;5118887;27;20251;-48
2021/12/17 02:55:41;;;;;;;167.15;45.33;;;;;;;7.20;100.00;103973.38;5118600;27;20027;-48
2021/12/17 02:58:07;;;;;;;156.88;43.97;;;;;;;7.21;100.00;103968.91;5119185;27;20034;-46
2021/12/17 03:00:35;;;;;;;176.00;44.13;;;;;;;7.20;100.00;103972.50;5118801;27;20029;-46
2021/12/17 03:03:03;;;;;;;157.55;45.40;;;;;;;7.21;100.00;103972.47;5118980;27;20046;-48
2021/12/17 03:05:28;;;;;;;171.68;44.60;;;;;;;7.21;100.00;103974.22;5128567;27;20019;-50
2021/12/17 03:07:55;;;;;;;161.02;44.38;;;;;;;7.21;100.00;103969.81;5138193;27;20042;-47
2021/12/17 03:10:21;;;;;;;167.80;44.10;;;;;;;7.18;100.00;103958.41;5139467;27;20350;-46
2021/12/17 03:12:53;;;;;;;160.75;43.35;;;;;;;7.23;100.00;103965.28;5139118;27;20027;-49
2021/12/17 03:15:42;;;;;;;163.80;43.63;;;;;;;7.24;100.00;103963.47;5139439;27;20770;-47
2021/12/17 03:23:40;;;;;;;173.55;44.67;;;;;;;7.25;100.00;103960.75;5142970;27;20591;-47
2021/12/17 03:26:21;;;;;;;166.95;44.35;;;;;;;7.26;100.00;103972.25;5144140;27;20484;-47
2021/12/17 03:28:49;;;;;;;158.13;43.70;;;;;;;7.24;100.00;103972.31;5143354;27;20030;-47
2021/12/17 03:31:15;;;;;;;163.73;45.42;;;;;;;7.24;100.00;103974.97;5143080;27;20427;-48
2021/12/17 03:33:44;;;;;;;153.77;43.13;;;;;;;7.25;100.00;103975.84;5143232;27;20394;-44
2021/12/17 03:36:15;;;;;;;154.45;45.08;;;;;;;7.22;100.00;103968.84;5143965;27;20029;-48
2021/12/17 03:38:44;;;;;;;154.80;43.28;;;;;;;7.24;100.00;103971.44;5141123;27;20252;-48
2021/12/17 03:41:27;;;;;;;164.88;44.60;;;;;;;7.23;100.00;103977.69;5124710;27;20062;-47
2021/12/17 03:43:56;;;;;;;153.82;43.72;;;;;;;7.22;100.00;103976.84;5142633;27;20034;-46
2021/12/17 03:46:22;;;;;;;142.15;42.35;;;;;;;7.19;100.00;103968.97;5143852;27;20026;-48
2021/12/17 03:48:48;;;;;;;144.93;43.78;;;;;;;7.20;100.00;103977.84;5143447;27;20049;-47
2021/12/17 03:51:16;;;;;;;139.98;43.08;;;;;;;7.20;100.00;103977.84;5143837;27;20188;-49
2021/12/17 03:53:50;;;;;;;144.30;42.85;;;;;;;7.20;100.00;103972.50;5142014;27;20034;-48
2021/12/17 03:56:16;;;;;;;140.40;42.13;;;;;;;7.22;100.00;103975.97;5143571;27;20030;-51
2021/12/17 03:58:41;;;;;;;139.38;42.97;;;;;;;7.22;100.00;103983.94;5142713;27;20026;-48
2021/12/17 04:01:07;;;;;;;143.70;43.90;;;;;;;7.21;100.00;103974.22;5143336;27;20029;-49
2021/12/17 04:03:33;;;;;;;141.18;42.72;;;;;;;7.19;100.00;103965.47;5123951;27;20018;-48
2021/12/17 04:05:58;;;;;;;134.40;41.90;;;;;;;7.21;100.00;103974.22;5142762;27;20022;-46
2021/12/17 04:08:24;;;;;;;147.48;43.53;;;;;;;7.20;100.00;103961.88;5141873;27;20331;-45
2021/12/17 04:10:52;;;;;;;133.50;41.95;;;;;;;7.19;100.00;103962.81;5143089;27;20023;-48
2021/12/17 04:13:29;;;;;;;125.65;40.45;;;;;;;7.19;100.00;103962.81;5142872;27;20022;-49
2021/12/17 04:15:58;;;;;;;116.65;40.40;;;;;;;7.18;100.00;103969.03;5142663;27;20027;-45
2021/12/17 04:18:25;;;;;;;128.82;40.58;;;;;;;7.17;100.00;103970.84;5142909;27;20052;-46
2021/12/17 04:20:51;;;;;;;125.40;39.95;;;;;;;7.10;100.00;103958.72;5123277;27;20018;-47
2021/12/17 04:23:17;;;;;;;112.63;39.42;;;;;;;7.17;100.00;103973.50;5141694;27;20390;-46
2021/12/17 04:25:42;;;;;;;114.43;38.47;;;;;;;7.16;100.00;103973.53;5142429;27;20029;-47
2021/12/17 04:28:07;;;;;;;122.32;39.95;;;;;;;7.14;100.00;103973.59;5142754;27;20027;-48
2021/12/17 04:30:33;;;;;;;113.47;39.90;;;;;;;7.13;100.00;103971.91;5142367;27;20423;-46
2021/12/17 04:32:58;;;;;;;115.88;40.08;;;;;;;7.07;100.00;103967.66;5142646;27;20033;-50
2021/12/17 04:35:24;;;;;;;109.28;38.05;;;;;;;7.09;100.00;103975.59;5142773;27;20083;-48
2021/12/17 04:37:50;;;;;;;110.03;39.42;;;;;;;7.08;100.00;103974.72;5143045;27;20493;-50
2021/12/17 04:40:16;;;;;;;98.68;38.00;;;;;;;7.09;100.00;103976.47;5141196;27;20034;-51
2021/12/17 04:43:10;;;;;;;108.35;37.15;;;;;;;7.07;100.00;103978.31;5141331;27;20030;-46
2021/12/17 04:45:40;;;;;;;106.97;37.63;;;;;;;7.07;100.00;103977.44;5142033;27;20026;-46
2021/12/17 04:59:20;;;;;;;120.55;39.60;;;;;;;6.98;100.00;103965.38;5121324;27;20038;-48
2021/12/17 05:01:46;;;;;;;110.68;39.35;;;;;;;6.96;100.00;103963.69;5121662;27;20019;-46
2021/12/17 05:04:11;;;;;;;113.18;39.25;;;;;;;6.96;100.00;103961.03;5121829;27;20034;-49
2021/12/17 05:06:37;;;;;;;104.00;39.08;;;;;;;6.95;100.00;103965.50;5121529;27;20123;-49
2021/12/17 05:09:12;;;;;;;97.05;38.05;;;;;;;6.95;100.00;103962.00;5119470;27;20031;-48
2021/12/17 05:19:53;;;;;;;115.90;39.67;;;;;;;6.88;100.00;103972.00;5121096;27;20061;-47
2021/12/17 05:22:19;;;;;;;98.07;37.17;;;;;;;6.90;100.00;103972.78;5121233;27;20376;-45
2021/12/17 05:24:45;;;;;;;98.00;38.97;;;;;;;6.88;100.00;103970.19;5119792;27;20088;-46
2021/12/17 05:27:11;;;;;;;97.97;38.97;;;;;;;6.83;100.00;103979.28;5120313;27;20087;-49
2021/12/17 05:29:36;;;;;;;91.20;38.30;;;;;;;6.84;100.00;103983.66;5120484;27;20033;-48
2021/12/17 05:32:01;;;;;;;96.60;39.15;;;;;;;6.82;100.00;103978.41;5120313;27;20026;-50
2021/12/17 05:34:27;;;;;;;98.35;37.55;;;;;;;6.84;100.00;103981.00;5121425;27;20690;-48
2021/12/17 05:36:52;;;;;;;100.85;38.83;;;;;;;6.82;100.00;103978.41;5129085;27;20571;-46
2021/12/17 05:39:18;;;;;;;101.97;39.53;;;;;;;6.83;100.00;103982.78;5139952;27;20091;-47
2021/12/17 05:41:43;;;;;;;97.50;38.38;;;;;;;6.86;100.00;103988.00;5121098;27;20125;-47
2021/12/17 05:44:08;;;;;;;102.35;38.53;;;;;;;6.89;100.00;103992.31;5140891;27;20018;-48
2021/12/17 05:46:49;;;;;;;107.20;38.67;;;;;;;6.87;100.00;103981.75;5140953;27;20030;-47
2021/12/17 05:49:23;;;;;;;98.13;38.03;;;;;;;6.88;100.00;103975.50;5140979;27;20138;-46
2021/12/17 05:51:48;;;;;;;107.63;37.85;;;;;;;6.85;100.00;103974.75;5141209;27;20049;-48
2021/12/17 05:54:15;;;;;;;106.47;39.00;;;;;;;6.82;100.00;103973.09;5139520;27;20193;-47
2021/12/17 05:56:41;;;;;;;108.50;38.75;;;;;;;6.83;100.00;103977.47;5139738;27;20081;-48
2021/12/17 05:59:07;;;;;;;111.43;38.47;;;;;;;6.84;100.00;103989.84;5140634;27;20058;-50
2021/12/17 06:01:33;;;;;;;112.15;39.50;;;;;;;6.82;100.00;103988.16;5141066;27;20026;-45
2021/12/17 06:03:58;;;;;;;97.85;38.83;;;;;;;6.83;100.00;103989.91;5140425;27;20033;-45
2021/12/17 06:06:28;;;;;;;106.18;39.30;;;;;;;6.85;100.00;103994.22;5141442;27;20022;-48
2021/12/17 06:08:53;;;;;;;110.70;38.88;;;;;;;6.85;100.00;103994.22;5139252;27;20064;-46
2021/12/17 06:11:18;;;;;;;110.13;38.88;;;;;;;6.84;100.00;103995.16;5141032;27;20019;-48
2021/12/17 06:13:44;;;;;;;115.80;38.83;;;;;;;6.83;100.00;103993.41;5139912;27;20294;-50
2021/12/17 06:16:09;;;;;;;106.65;40.20;;;;;;;6.82;100.00;103996.13;5140536;27;20138;-47
2021/12/17 06:18:34;;;;;;;110.53;39.08;;;;;;;6.79;100.00;103996.25;5139875;27;20109;-46
2021/12/17 06:21:00;;;;;;;103.85;40.13;;;;;;;6.79;100.00;103994.47;5139837;27;20025;-46
2021/12/17 06:23:25;;;;;;;100.05;39.00;;;;;;;6.81;100.00;103997.94;5119619;27;20075;-48
2021/12/17 06:25:50;;;;;;;115.22;40.78;;;;;;;6.78;100.00;103998.03;5136875;27;20080;-47
2021/12/17 06:28:16;;;;;;;109.50;39.58;;;;;;;6.79;100.00;104005.09;5139391;27;20026;-50
2021/12/17 06:30:42;;;;;;;114.90;40.70;;;;;;;6.79;100.00;103999.78;5139701;27;20017;-48
2021/12/17 06:33:08;;;;;;;109.18;40.65;;;;;;;6.82;100.00;104009.41;5139873;27;20022;-50
2021/12/17 06:35:33;;;;;;;111.63;40.55;;;;;;;6.82;100.00;104015.63;5140037;27;20022;-45
2021/12/17 06:37:59;;;;;;;117.30;41.78;;;;;;;6.83;100.00;104016.47;5138839;27;20038;-50
2021/12/17 06:40:24;;;;;;;109.13;40.05;;;;;;;6.81;100.00;104013.00;5120330;27;20026;-45
2021/12/17 06:42:50;;;;;;;119.18;41.13;;;;;;;6.82;100.00;104012.97;5138835;27;20027;-50
2021/12/17 06:45:23;;;;;;;114.90;39.67;;;;;;;6.81;100.00;104015.66;5134008;27;20071;-45
2021/12/17 06:47:55;;;;;;;122.88;40.50;;;;;;;6.80;100.00;104012.13;5139464;27;20022;-47
2021/12/17 06:59:01;;;;;;;98.88;37.15;;;;;;;6.80;100.00;104001.50;5109557;27;20026;-46
2021/12/17 07:07:26;;;;;;;114.68;40.25;;;;;;;6.80;100.00;104011.25;5139611;27;20106;-51
2021/12/17 07:10:04;;;;;;;113.85;39.78;;;;;;;6.79;100.00;104010.41;5137426;27;20087;-47
2021/12/17 07:17:54;;;;;;;120.60;37.92;;;;;;;6.80;100.00;104021.91;5138190;27;20117;-47
2021/12/17 07:23:03;;;;;;;125.45;37.58;;;;;;;6.78;100.00;104013.97;5138722;27;20176;-45
2021/12/17 07:33:44;;;;;;;113.50;38.10;;;;;;;6.77;100.00;103998.09;5134059;27;20525;-46
2021/12/17 07:36:13;;;;;;;114.30;35.90;;;;;;;6.74;100.00;103988.47;5133684;27;20086;-46
2021/12/17 07:38:46;;;;;;;129.82;39.45;;;;;;;6.73;100.00;104000.00;5137543;27;20026;-47
2021/12/17 07:41:11;;;;;;;127.13;38.55;;;;;;;6.72;100.00;103992.94;5134089;27;20065;-44
2021/12/17 07:43:41;;;;;;;132.57;37.05;;;;;;;6.73;100.00;103994.69;5139142;27;20007;-47
2021/12/17 07:46:10;;;;;;;129.00;37.53;;;;;;;6.73;100.00;103998.19;5138632;27;20022;-47
2021/12/17 07:48:36;;;;;;;138.55;38.67;;;;;;;6.77;100.00;104000.75;5136549;27;20038;-45
2021/12/17 07:51:04;;;;;;;136.88;37.13;;;;;;;6.77;100.00;104003.41;5119546;27;20026;-47
2021/12/17 07:53:31;;;;;;;146.63;39.22;;;;;;;6.73;100.00;103990.22;5132346;27;20422;-46
2021/12/17 07:55:57;;;;;;;143.68;38.72;;;;;;;6.75;100.00;103992.84;5138117;27;20027;-47
2021/12/17 07:58:22;;;;;;;131.73;37.40;;;;;;;6.75;100.00;103999.94;5138497;27;20045;-48
2021/12/17 08:00:48;;;;;;;132.05;36.63;;;;;;;6.75;100.00;103992.84;5138029;27;20058;-46
2021/12/17 08:03:14;;;;;;;135.15;36.60;;;;;;;6.76;100.00;103996.38;5138564;27;20113;-46
2021/12/17 08:05:42;;;;;;;125.72;38.17;;;;;;;6.79;100.00;104002.44;5139823;27;20048;-49
2021/12/17 08:08:08;;;;;;;124.97;36.60;;;;;;;6.80;100.00;103998.84;5118691;27;20354;-45
2021/12/17 08:10:33;;;;;;;142.40;37.42;;;;;;;6.82;100.00;104002.31;5139880;27;20018;-48
2021/12/17 08:12:59;;;;;;;153.20;38.78;;;;;;;6.84;100.00;104018.19;5141126;27;20035;-48
2021/12/17 08:15:32;;;;;;;134.43;36.17;;;;;;;6.87;100.00;104023.38;5141976;27;20338;-49
2021/12/17 08:28:25;;;;;;;146.32;37.08;;;;;;;6.94;100.00;104024.88;5141413;27;20035;-48
2021/12/17 08:30:50;;;;;;;149.23;38.13;;;;;;;6.94;100.00;104027.53;5141259;27;20401;-48
2021/12/17 08:33:20;;;;;;;146.90;37.65;;;;;;;6.94;100.00;104024.03;5142564;27;20031;-45
2021/12/17 08:35:46;;;;;;;157.73;38.13;;;;;;;6.95;100.00;104023.09;5141804;27;20026;-48
2021/12/17 08:38:11;;;;;;;153.15;37.80;;;;;;;6.98;100.00;104023.84;5139867;27;20057;-47
2021/12/17 08:40:37;;;;;;;154.45;37.58;;;;;;;7.00;100.00;104024.66;5121840;27;20087;-48
2021/12/17 08:43:03;;;;;;;169.68;38.00;;;;;;;7.03;100.00;104031.66;5121541;27;20014;-47
2021/12/17 08:45:29;;;;;;;152.07;36.38;;;;;;;7.05;100.00;104035.97;5141249;27;20382;-46
2021/12/17 08:47:54;;;;;;;155.32;34.33;;;;;;;7.06;100.00;104032.41;5126897;27;20019;-47
2021/12/17 08:50:20;;;;;;;141.88;35.78;;;;;;;7.07;100.00;104035.91;5120175;27;20065;-49
2021/12/17 08:52:46;;;;;;;153.18;35.70;;;;;;;7.09;100.00;104026.97;5120205;27;20030;-47
2021/12/17 08:55:11;;;;;;;157.85;37.85;;;;;;;7.12;100.00;104033.09;5123981;27;20086;-46
2021/12/17 08:57:37;;;;;;;154.95;36.67;;;;;;;7.12;100.00;104025.09;5141028;27;20098;-49
2021/12/17 09:00:07;;;;;;;156.02;35.35;;;;;;;7.13;100.00;104027.72;5141078;27;20501;-45
2021/12/17 09:02:35;;;;;;;160.73;37.25;;;;;;;7.14;100.00;104017.94;5141424;27;20386;-48
2021/12/17 09:05:00;;;;;;;160.05;35.53;;;;;;;7.14;100.00;104017.94;5141194;27;20405;-46
2021/12/17 09:07:26;;;;;;;174.18;37.78;;;;;;;7.13;100.00;104029.47;5140870;27;20054;-47
2021/12/17 09:09:51;;;;;;;160.48;35.35;;;;;;;7.12;100.00;104031.28;5141278;27;20038;-48
2021/12/17 09:12:16;;;;;;;173.82;35.03;;;;;;;7.12;100.00;104036.59;5141708;27;20073;-46
2021/12/17 09:14:42;;;;;;;172.40;35.08;;;;;;;7.14;100.00;104044.53;5141075;27;20375;-47
2021/12/17 09:17:07;;;;;;;164.77;35.03;;;;;;;7.15;100.00;104043.59;5140564;27;20015;-48
2021/12/17 09:19:33;;;;;;;159.32;34.33;;;;;;;7.17;100.00;104053.22;5141791;27;20018;-45
2021/12/17 09:21:59;;;;;;;169.02;35.28;;;;;;;7.15;100.00;104056.91;5140397;27;20018;-47
2021/12/17 09:24:24;;;;;;;163.75;32.92;;;;;;;7.19;100.00;104055.84;5140747;27;20042;-45
2021/12/17 09:26:49;;;;;;;168.27;34.13;;;;;;;7.20;100.00;104058.44;5141341;27;20010;-49
2021/12/17 09:29:15;;;;;;;166.82;33.50;;;;;;;7.22;100.00;104058.38;5141101;27;20458;-45
2021/12/17 09:31:41;;;;;;;158.40;33.20;;;;;;;7.25;100.00;104061.78;5140496;27;20040;-45
2021/12/17 09:34:06;;;;;;;155.90;32.55;;;;;;;7.28;100.00;104066.09;5141449;27;20501;-48
2021/12/17 09:36:33;;;;;;;159.05;32.25;;;;;;;7.31;100.00;104059.81;5141633;27;20027;-47
2021/12/17 09:38:59;;;;;;;155.10;31.80;;;;;;;7.34;100.00;104063.22;5139845;27;20553;-47
2021/12/17 09:41:26;;;;;;;155.95;30.60;;;;;;;7.38;100.00;104056.88;5141943;27;20019;-46
2021/12/17 09:43:53;;;;;;;161.82;32.53;;;;;;;7.41;100.00;104064.69;5140613;27;20277;-49
2021/12/17 09:46:18;;;;;;;156.60;31.17;;;;;;;7.44;100.00;104067.22;5138560;27;20104;-48
2021/12/17 09:48:46;;;;;;;169.48;31.80;;;;;;;7.46;100.00;104065.38;5101320;27;20055;-47
2021/12/17 09:51:12;;;;;;;153.93;32.30;;;;;;;7.50;100.00;104070.56;5120616;27;20421;-46
2021/12/17 09:53:37;;;;;;;144.57;30.48;;;;;;;7.53;100.00;104071.31;5118732;27;20137;-46
2021/12/17 09:56:05;;;;;;;150.88;30.75;;;;;;;7.52;100.00;104082.91;5136064;27;20521;-47
2021/12/17 09:58:31;;;;;;;145.80;29.48;;;;;;;7.54;100.00;104091.69;5136942;27;20058;-48
2021/12/17 10:00:56;;;;;;;139.55;29.70;;;;;;;7.58;100.00;104090.63;5130983;27;20026;-47
2021/12/17 10:03:22;;;;;;;151.82;31.13;;;;;;;7.63;100.00;104090.44;5134651;27;20041;-45
2021/12/17 10:05:47;;;;;;;145.43;30.60;;;;;;;7.62;100.00;104091.34;5140965;27;20015;-46
2021/12/17 10:08:17;;;;;;;146.32;30.30;;;;;;;7.64;100.00;104090.38;5120602;27;20029;-45
2021/12/17 10:10:54;;;;;;;142.50;30.38;;;;;;;7.66;100.00;104093.84;5140711;27;20131;-45
2021/12/17 10:13:22;;;;;;;135.35;28.67;;;;;;;7.68;100.00;104087.59;5140068;27;20102;-45
2021/12/17 10:15:50;;;;;;;131.45;28.40;;;;;;;7.68;100.00;104095.59;5140606;27;20034;-47
2021/12/17 10:18:17;;;;;;;137.60;28.05;;;;;;;7.66;100.00;104092.97;5140979;27;20030;-46
2021/12/17 10:20:42;;;;;;;127.85;28.08;;;;;;;7.68;100.00;104091.13;5140143;27;20027;-50
2021/12/17 10:23:10;;;;;;;126.68;26.67;;;;;;;7.70;100.00;104091.91;5139749;27;20026;-49
2021/12/17 10:25:40;;;;;;;138.38;28.40;;;;;;;7.72;100.00;104091.84;5140858;27;20729;-47
2021/12/17 10:28:06;;;;;;;129.13;27.27;;;;;;;7.71;100.00;104085.69;5120740;27;20454;-48
2021/12/17 10:30:35;;;;;;;125.88;27.75;;;;;;;7.76;100.00;104090.81;5128495;27;20023;-48
2021/12/17 10:33:04;;;;;;;129.57;27.48;;;;;;;7.77;100.00;104096.09;5119424;27;20036;-46
2021/12/17 10:35:38;;;;;;;128.13;27.30;;;;;;;7.77;100.00;104093.41;5121538;27;20027;-47
2021/12/17 10:38:08;;;;;;;122.15;25.75;;;;;;;7.75;100.00;104087.28;5118533;27;20046;-49
2021/12/17 10:40:41;;;;;;;120.38;24.48;;;;;;;7.77;100.00;104090.75;5101206;27;20045;-45
2021/12/17 10:43:23;;;;;;;119.35;25.13;;;;;;;7.76;100.00;104091.69;5119553;27;20505;-47
2021/12/17 10:46:01;;;;;;;115.47;26.40;;;;;;;7.76;100.00;104090.81;5118252;27;20026;-45
2021/12/17 10:48:34;;;;;;;112.82;25.33;;;;;;;7.74;100.00;104093.53;5119580;27;20062;-45
2021/12/17 10:51:02;;;;;;;117.32;24.73;;;;;;;7.75;100.00;104092.59;5117647;27;20023;-47
2021/12/17 10:53:28;;;;;;;110.22;24.63;;;;;;;7.74;100.00;104095.31;5123092;27;20026;-50
2021/12/17 10:55:55;;;;;;;130.30;27.77;;;;;;;7.75;100.00;104097.91;5139814;27;20030;-48
2021/12/17 10:58:21;;;;;;;138.98;31.67;;;;;;;7.78;100.00;104104.91;5139925;27;20479;-47
2021/12/17 11:00:55;;;;;;;112.10;26.15;;;;;;;7.75;100.00;104091.75;5139590;27;20031;-48
2021/12/17 11:03:21;;;;;;;117.30;25.42;;;;;;;7.79;100.00;104094.22;5125405;27;20031;-47
2021/12/17 11:05:46;;;;;;;121.13;25.75;;;;;;;7.81;100.00;104095.00;5119203;27;20038;-50
2021/12/17 11:08:24;;;;;;;117.07;24.52;;;;;;;7.85;100.00;104098.41;5117910;27;20143;-46
2021/12/17 11:10:57;;;;;;;111.28;24.50;;;;;;;7.88;100.00;104103.63;5119092;27;20446;-47
2021/12/17 11:13:22;;;;;;;115.93;25.30;;;;;;;7.92;100.00;104091.03;5134181;27;20042;-49
2021/12/17 11:15:50;;;;;;;110.68;25.40;;;;;;;7.96;100.00;104104.16;5139543;27;20023;-48
2021/12/17 11:18:15;;;;;;;112.97;24.35;;;;;;;7.97;100.00;104095.25;5139073;27;20087;-49
2021/12/17 11:20:41;;;;;;;113.50;23.60;;;;;;;8.00;100.00;104091.59;5119430;27;20023;-46
2021/12/17 11:23:14;;;;;;;106.75;23.15;;;;;;;7.97;100.00;104089.91;5137937;27;20063;-45
2021/12/17 11:25:53;;;;;;;103.40;22.60;;;;;;;8.00;100.00;104091.59;5136479;27;20086;-48
2021/12/17 11:28:19;;;;;;;97.18;22.23;;;;;;;7.99;100.00;104081.88;5135123;27;20158;-48
2021/12/17 11:30:47;;;;;;;93.38;21.63;;;;;;;8.01;100.00;104080.88;5139057;27;20030;-46
2021/12/17 11:33:13;;;;;;;88.05;19.90;;;;;;;8.05;100.00;104076.28;5139097;27;20105;-47
2021/12/17 11:35:42;;;;;;;89.00;20.02;;;;;;;8.05;100.00;104070.97;5138273;27;20479;-50
2021/12/17 11:38:17;;;;;;;93.45;22.33;;;;;;;8.09;100.00;104067.25;5138144;27;20501;-46
2021/12/17 11:40:47;;;;;;;79.75;19.65;;;;;;;8.18;100.00;104068.63;5135828;27;20261;-45
2021/12/17 11:43:36;;;;;;;77.05;18.90;;;;;;;8.25;100.00;104067.47;5143239;27;20106;-47
2021/12/17 11:46:10;;;;;;;63.05;16.02;;;;;;;8.22;100.00;104060.47;5140088;27;20139;-51
2021/12/17 11:48:36;;;;;;;56.85;15.15;;;;;;;8.26;100.00;104060.34;5143014;27;20045;-47
2021/12/17 11:51:14;;;;;;;57.20;15.80;;;;;;;8.28;100.00;104066.44;5143556;27;20051;-49
2021/12/17 11:53:52;;;;;;;51.28;14.05;;;;;;;8.26;100.00;104063.00;5141337;27;20644;-45
2021/12/17 11:56:30;;;;;;;58.67;13.85;;;;;;;8.24;100.00;104057.72;5143144;27;20031;-48
2021/12/17 11:58:55;;;;;;;44.22;12.52;;;;;;;8.26;100.00;104065.66;5138351;27;20023;-45
2021/12/17 12:01:56;;;;;;;41.40;13.38;;;;;;;8.25;100.00;104059.47;5143321;27;20431;-46
2021/12/17 12:04:39;;;;;;;33.67;10.18;;;;;;;8.19;100.00;104055.25;5139778;27;20026;-49
2021/12/17 12:07:07;;;;;;;28.15;8.85;;;;;;;8.12;100.00;104055.59;5139837;27;20473;-46
2021/12/17 12:10:01;;;;;;;27.63;9.45;;;;;;;8.13;100.00;104059.97;5143400;27;20021;-45
2021/12/17 12:12:38;;;;;;;28.65;10.00;;;;;;;8.10;100.00;104058.34;5142936;27;20470;-45
2021/12/17 12:15:23;;;;;;;27.58;9.23;;;;;;;8.13;100.00;104054.66;5142418;27;20194;-46
2021/12/17 12:17:57;;;;;;;26.17;9.35;;;;;;;8.13;100.00;104060.88;5143831;27;20106;-46
2021/12/17 12:20:44;;;;;;;24.88;8.13;;;;;;;8.14;100.00;104062.59;5143574;27;20030;-48
2021/12/17 12:23:40;;;;;;;25.20;8.02;;;;;;;8.14;100.00;104065.25;5142090;27;20050;-45
2021/12/17 12:26:08;;;;;;;21.85;8.10;;;;;;;8.10;100.00;104066.31;5140576;27;20562;-47
2021/12/17 12:28:46;;;;;;;22.08;8.50;;;;;;;8.07;100.00;104068.25;5139799;27;20106;-48
2021/12/17 12:31:22;;;;;;;24.48;8.43;;;;;;;8.00;100.00;104072.97;5137686;27;20031;-46
2021/12/17 12:34:03;;;;;;;30.73;9.10;;;;;;;7.98;100.00;104058.88;5136716;27;20054;-48
2021/12/17 12:36:58;;;;;;;21.02;8.00;;;;;;;7.96;100.00;104055.38;5142280;27;20026;-48
2021/12/17 12:39:37;;;;;;;19.23;7.35;;;;;;;7.93;100.00;104064.38;5122075;27;20024;-51
2021/12/17 12:42:17;;;;;;;20.15;7.85;;;;;;;7.89;100.00;104064.56;5128702;27;20035;-46
2021/12/17 12:44:42;;;;;;;22.77;7.63;;;;;;;7.85;100.00;104067.34;5136803;27;20023;-45
2021/12/17 12:47:20;;;;;;;19.60;7.38;;;;;;;7.84;100.00;104075.38;5141973;27;20410;-45
2021/12/17 12:50:06;;;;;;;19.27;6.50;;;;;;;7.82;100.00;104067.50;5129254;27;20139;-46
2021/12/17 12:52:31;;;;;;;16.50;6.50;;;;;;;7.79;100.00;104062.28;5136715;27;20531;-48
2021/12/17 12:55:04;;;;;;;14.70;6.18;;;;;;;7.77;100.00;104058.84;5141423;27;20031;-47
2021/12/17 12:57:43;;;;;;;13.05;5.50;;;;;;;7.77;100.00;104053.50;5123491;27;20393;-51
2021/12/17 13:00:08;;;;;;;12.05;5.07;;;;;;;7.74;100.00;104063.38;5138503;27;20031;-47
2021/12/17 13:02:34;;;;;;;17.73;6.80;;;;;;;7.74;100.00;104052.75;5141955;27;20418;-46
2021/12/17 13:05:00;;;;;;;18.27;8.80;;;;;;;7.73;100.00;104054.53;5138912;27;20034;-47
2021/12/17 13:07:48;;;;;;;21.83;9.43;;;;;;;7.74;100.00;104064.28;5140374;27;20030;-45
2021/12/17 13:10:22;;;;;;;23.73;8.85;;;;;;;7.72;100.00;104052.84;5136530;27;20427;-45
2021/12/17 13:13:58;;;;;;;26.52;11.27;;;;;;;7.73;100.00;104054.53;5118951;27;20425;-48
2021/12/17 13:24:13;;;;;;;21.35;9.15;;;;;;;7.63;100.00;104055.84;5139517;27;20050;-45
2021/12/17 13:26:46;;;;;;;26.10;10.27;;;;;;;7.62;100.00;104046.13;5133331;27;20062;-47
2021/12/17 13:29:14;;;;;;;27.23;10.32;;;;;;;7.61;100.00;104044.41;5129405;27;20058;-47
2021/12/17 13:31:41;;;;;;;21.48;10.18;;;;;;;7.57;100.00;104043.69;5140852;27;20015;-45
2021/12/17 13:34:09;;;;;;;26.67;9.32;;;;;;;7.55;100.00;104053.53;5141509;27;20026;-46
2021/12/17 13:36:35;;;;;;;20.15;8.48;;;;;;;7.53;100.00;104052.69;5128369;27;20114;-44
2021/12/17 13:39:01;;;;;;;20.88;8.40;;;;;;;7.54;100.00;104045.59;5139644;27;20094;-46
2021/12/17 13:41:41;;;;;;;17.70;8.38;;;;;;;7.54;100.00;104051.78;5141601;27;20590;-44
2021/12/17 13:44:26;;;;;;;17.08;8.90;;;;;;;7.52;100.00;104053.66;5140429;27;20037;-50
2021/12/17 13:46:53;;;;;;;18.23;8.40;;;;;;;7.51;100.00;104059.03;5122327;27;20226;-46
2021/12/17 13:49:19;;;;;;;16.83;7.85;;;;;;;7.49;100.00;104047.59;5140938;27;20066;-49
2021/12/17 13:51:45;;;;;;;18.13;7.43;;;;;;;7.51;100.00;104053.69;5134847;27;20018;-47
2021/12/17 13:54:11;;;;;;;13.75;6.15;;;;;;;7.47;100.00;104045.84;5140567;27;20858;-47